sensor_id;sensor_type;location;lat;lon;timestamp;P1;durP1;ratioP1;P2;durP2;ratioP2
46731;SDS011;32477;51.474;5.696;2022-08-20T00:00:39;25.80;;;14.10;;
46731;SDS011;32477;51.474;5.696;2022-08-20T00:03:08;24.30;;;15.18;;
46731;SDS011;32477;51.474;5.696;2022-08-20T00:05:40;27.23;;;15.38;;
46731;SDS011;32477;51.474;5.696;2022-08-20T00:08:08;34.38;;;14.95;;
46731;SDS011;32477;51.474;5.696;2022-08-20T00:10:36;25.63;;;14.48;;
46731;SDS011;32477;51.474;5.696;2022-08-20T00:13:07;24.98;;;14.23;;
46731;SDS011;32477;51.474;5.696;2022-08-20T00:15:36;27.20;;;14.48;;
46731;SDS011;32477;51.474;5.696;2022-08-20T00:18:03;27.73;;;15.13;;
46731;SDS011;32477;51.474;5.696;2022-08-20T00:20:31;32.58;;;15.38;;
46731;SDS011;32477;51.474;5.696;2022-08-20T00:22:59;29.55;;;14.52;;
46731;SDS011;32477;51.474;5.696;2022-08-20T00:25:25;29.23;;;14.05;;
46731;SDS011;32477;51.474;5.696;2022-08-20T00:27:52;30.75;;;15.50;;
46731;SDS011;32477;51.474;5.696;2022-08-20T00:30:19;27.33;;;14.70;;
46731;SDS011;32477;51.474;5.696;2022-08-20T00:32:47;29.45;;;14.77;;
46731;SDS011;32477;51.474;5.696;2022-08-20T00:35:17;30.17;;;14.75;;
46731;SDS011;32477;51.474;5.696;2022-08-20T00:37:44;26.65;;;14.40;;
46731;SDS011;32477;51.474;5.696;2022-08-20T00:40:11;27.70;;;15.07;;
46731;SDS011;32477;51.474;5.696;2022-08-20T00:42:42;31.30;;;15.27;;
46731;SDS011;32477;51.474;5.696;2022-08-20T00:45:14;31.40;;;16.35;;
46731;SDS011;32477;51.474;5.696;2022-08-20T00:47:42;32.67;;;15.95;;
46731;SDS011;32477;51.474;5.696;2022-08-20T00:50:12;34.92;;;15.93;;
46731;SDS011;32477;51.474;5.696;2022-08-20T00:52:40;30.80;;;15.50;;
46731;SDS011;32477;51.474;5.696;2022-08-20T00:55:09;30.63;;;15.68;;
46731;SDS011;32477;51.474;5.696;2022-08-20T00:57:41;30.25;;;15.52;;
46731;SDS011;32477;51.474;5.696;2022-08-20T01:00:26;36.38;;;17.15;;
46731;SDS011;32477;51.474;5.696;2022-08-20T01:02:54;36.67;;;17.08;;
46731;SDS011;32477;51.474;5.696;2022-08-20T01:05:21;33.95;;;17.63;;
46731;SDS011;32477;51.474;5.696;2022-08-20T01:07:48;43.63;;;18.58;;
46731;SDS011;32477;51.474;5.696;2022-08-20T01:10:18;36.00;;;17.33;;
46731;SDS011;32477;51.474;5.696;2022-08-20T01:12:48;34.50;;;17.13;;
46731;SDS011;32477;51.474;5.696;2022-08-20T01:15:16;35.08;;;17.50;;
46731;SDS011;32477;51.474;5.696;2022-08-20T01:17:48;31.95;;;17.35;;
46731;SDS011;32477;51.474;5.696;2022-08-20T01:20:17;33.03;;;17.50;;
46731;SDS011;32477;51.474;5.696;2022-08-20T01:28:20;30.77;;;16.77;;
46731;SDS011;32477;51.474;5.696;2022-08-20T01:30:50;31.75;;;16.00;;
46731;SDS011;32477;51.474;5.696;2022-08-20T01:33:17;32.90;;;17.00;;
46731;SDS011;32477;51.474;5.696;2022-08-20T01:35:44;33.72;;;16.13;;
46731;SDS011;32477;51.474;5.696;2022-08-20T01:38:10;38.75;;;17.63;;
46731;SDS011;32477;51.474;5.696;2022-08-20T01:40:47;34.60;;;17.35;;
46731;SDS011;32477;51.474;5.696;2022-08-20T01:43:27;30.85;;;17.05;;
46731;SDS011;32477;51.474;5.696;2022-08-20T01:45:53;40.55;;;17.98;;
46731;SDS011;32477;51.474;5.696;2022-08-20T01:48:19;40.30;;;17.60;;
46731;SDS011;32477;51.474;5.696;2022-08-20T01:50:52;37.50;;;18.15;;
46731;SDS011;32477;51.474;5.696;2022-08-20T01:53:31;41.25;;;17.90;;
46731;SDS011;32477;51.474;5.696;2022-08-20T01:56:03;42.28;;;17.63;;
46731;SDS011;32477;51.474;5.696;2022-08-20T01:58:31;34.40;;;17.35;;
46731;SDS011;32477;51.474;5.696;2022-08-20T02:00:58;35.40;;;17.88;;
46731;SDS011;32477;51.474;5.696;2022-08-20T02:03:24;34.70;;;17.20;;
46731;SDS011;32477;51.474;5.696;2022-08-20T02:05:50;44.08;;;18.50;;
46731;SDS011;32477;51.474;5.696;2022-08-20T02:08:18;41.60;;;17.52;;
46731;SDS011;32477;51.474;5.696;2022-08-20T02:10:45;41.28;;;18.02;;
46731;SDS011;32477;51.474;5.696;2022-08-20T02:13:11;38.50;;;18.38;;
46731;SDS011;32477;51.474;5.696;2022-08-20T02:15:37;39.85;;;18.30;;
46731;SDS011;32477;51.474;5.696;2022-08-20T02:18:08;41.63;;;18.88;;
46731;SDS011;32477;51.474;5.696;2022-08-20T02:20:36;41.25;;;18.20;;
46731;SDS011;32477;51.474;5.696;2022-08-20T02:23:03;36.53;;;19.15;;
46731;SDS011;32477;51.474;5.696;2022-08-20T02:25:30;37.90;;;19.73;;
46731;SDS011;32477;51.474;5.696;2022-08-20T02:27:59;45.30;;;20.33;;
46731;SDS011;32477;51.474;5.696;2022-08-20T02:30:28;41.67;;;20.50;;
46731;SDS011;32477;51.474;5.696;2022-08-20T02:32:57;44.80;;;22.30;;
46731;SDS011;32477;51.474;5.696;2022-08-20T02:35:24;41.67;;;21.55;;
46731;SDS011;32477;51.474;5.696;2022-08-20T02:37:51;44.50;;;21.55;;
46731;SDS011;32477;51.474;5.696;2022-08-20T02:40:18;42.28;;;21.85;;
46731;SDS011;32477;51.474;5.696;2022-08-20T02:42:44;42.10;;;20.48;;
46731;SDS011;32477;51.474;5.696;2022-08-20T02:45:11;41.03;;;20.48;;
46731;SDS011;32477;51.474;5.696;2022-08-20T02:47:39;48.92;;;21.02;;
46731;SDS011;32477;51.474;5.696;2022-08-20T02:50:05;49.88;;;22.15;;
46731;SDS011;32477;51.474;5.696;2022-08-20T02:52:34;42.53;;;20.65;;
46731;SDS011;32477;51.474;5.696;2022-08-20T02:55:00;43.75;;;22.65;;
46731;SDS011;32477;51.474;5.696;2022-08-20T02:57:25;49.35;;;22.83;;
46731;SDS011;32477;51.474;5.696;2022-08-20T02:59:52;51.65;;;23.50;;
46731;SDS011;32477;51.474;5.696;2022-08-20T03:02:18;41.67;;;24.48;;
46731;SDS011;32477;51.474;5.696;2022-08-20T03:04:45;46.47;;;22.98;;
46731;SDS011;32477;51.474;5.696;2022-08-20T03:07:11;42.33;;;23.38;;
46731;SDS011;32477;51.474;5.696;2022-08-20T03:09:37;50.85;;;23.52;;
46731;SDS011;32477;51.474;5.696;2022-08-20T03:12:03;45.33;;;24.17;;
46731;SDS011;32477;51.474;5.696;2022-08-20T03:14:30;42.50;;;23.02;;
46731;SDS011;32477;51.474;5.696;2022-08-20T03:16:56;47.75;;;25.15;;
46731;SDS011;32477;51.474;5.696;2022-08-20T03:19:23;46.22;;;25.52;;
46731;SDS011;32477;51.474;5.696;2022-08-20T03:21:49;60.63;;;27.27;;
46731;SDS011;32477;51.474;5.696;2022-08-20T03:24:15;59.47;;;28.50;;
46731;SDS011;32477;51.474;5.696;2022-08-20T03:26:42;52.85;;;27.10;;
46731;SDS011;32477;51.474;5.696;2022-08-20T03:29:08;57.83;;;28.27;;
46731;SDS011;32477;51.474;5.696;2022-08-20T03:31:33;58.30;;;26.80;;
46731;SDS011;32477;51.474;5.696;2022-08-20T03:33:59;52.20;;;27.08;;
46731;SDS011;32477;51.474;5.696;2022-08-20T03:36:26;64.55;;;28.70;;
46731;SDS011;32477;51.474;5.696;2022-08-20T03:38:52;58.85;;;27.52;;
46731;SDS011;32477;51.474;5.696;2022-08-20T03:41:19;56.75;;;27.60;;
46731;SDS011;32477;51.474;5.696;2022-08-20T03:43:45;54.03;;;25.63;;
46731;SDS011;32477;51.474;5.696;2022-08-20T03:46:10;54.47;;;26.80;;
46731;SDS011;32477;51.474;5.696;2022-08-20T03:48:36;54.13;;;28.42;;
46731;SDS011;32477;51.474;5.696;2022-08-20T03:51:03;54.38;;;27.63;;
46731;SDS011;32477;51.474;5.696;2022-08-20T03:53:28;57.20;;;28.63;;
46731;SDS011;32477;51.474;5.696;2022-08-20T03:55:56;69.22;;;29.17;;
46731;SDS011;32477;51.474;5.696;2022-08-20T03:58:25;67.65;;;29.80;;
46731;SDS011;32477;51.474;5.696;2022-08-20T04:00:52;65.57;;;28.48;;
46731;SDS011;32477;51.474;5.696;2022-08-20T04:03:20;59.63;;;30.15;;
46731;SDS011;32477;51.474;5.696;2022-08-20T04:05:47;64.38;;;29.83;;
46731;SDS011;32477;51.474;5.696;2022-08-20T04:08:16;71.70;;;31.27;;
46731;SDS011;32477;51.474;5.696;2022-08-20T04:10:47;60.03;;;30.27;;
46731;SDS011;32477;51.474;5.696;2022-08-20T04:13:14;55.35;;;30.13;;
46731;SDS011;32477;51.474;5.696;2022-08-20T04:15:41;61.60;;;30.40;;
46731;SDS011;32477;51.474;5.696;2022-08-20T04:18:08;70.50;;;31.48;;
46731;SDS011;32477;51.474;5.696;2022-08-20T04:20:36;55.78;;;29.45;;
46731;SDS011;32477;51.474;5.696;2022-08-20T04:23:03;54.72;;;29.63;;
46731;SDS011;32477;51.474;5.696;2022-08-20T04:25:30;56.97;;;28.35;;
46731;SDS011;32477;51.474;5.696;2022-08-20T04:27:58;52.42;;;28.15;;
46731;SDS011;32477;51.474;5.696;2022-08-20T04:30:27;58.13;;;29.48;;
46731;SDS011;32477;51.474;5.696;2022-08-20T04:32:54;62.50;;;30.77;;
46731;SDS011;32477;51.474;5.696;2022-08-20T04:35:20;58.17;;;31.55;;
46731;SDS011;32477;51.474;5.696;2022-08-20T04:37:48;73.65;;;31.40;;
46731;SDS011;32477;51.474;5.696;2022-08-20T04:40:21;73.07;;;30.42;;
46731;SDS011;32477;51.474;5.696;2022-08-20T04:43:06;59.70;;;31.33;;
46731;SDS011;32477;51.474;5.696;2022-08-20T04:45:31;65.25;;;33.17;;
46731;SDS011;32477;51.474;5.696;2022-08-20T04:48:00;66.95;;;32.97;;
46731;SDS011;32477;51.474;5.696;2022-08-20T04:50:32;67.03;;;32.45;;
46731;SDS011;32477;51.474;5.696;2022-08-20T04:53:00;72.70;;;33.83;;
46731;SDS011;32477;51.474;5.696;2022-08-20T04:55:27;78.43;;;34.92;;
46731;SDS011;32477;51.474;5.696;2022-08-20T04:57:53;86.90;;;38.10;;
46731;SDS011;32477;51.474;5.696;2022-08-20T05:00:20;83.72;;;37.63;;
46731;SDS011;32477;51.474;5.696;2022-08-20T05:02:45;76.20;;;38.13;;
46731;SDS011;32477;51.474;5.696;2022-08-20T05:05:11;72.03;;;37.72;;
46731;SDS011;32477;51.474;5.696;2022-08-20T05:07:41;80.65;;;38.95;;
46731;SDS011;32477;51.474;5.696;2022-08-20T05:10:10;76.90;;;38.38;;
46731;SDS011;32477;51.474;5.696;2022-08-20T05:12:38;80.03;;;38.95;;
46731;SDS011;32477;51.474;5.696;2022-08-20T05:15:05;82.57;;;39.83;;
46731;SDS011;32477;51.474;5.696;2022-08-20T05:17:31;85.18;;;39.03;;
46731;SDS011;32477;51.474;5.696;2022-08-20T05:19:57;92.40;;;43.15;;
46731;SDS011;32477;51.474;5.696;2022-08-20T05:22:24;88.63;;;41.42;;
46731;SDS011;32477;51.474;5.696;2022-08-20T05:24:51;84.13;;;41.50;;
46731;SDS011;32477;51.474;5.696;2022-08-20T05:27:17;98.93;;;41.00;;
46731;SDS011;32477;51.474;5.696;2022-08-20T05:29:43;78.32;;;40.15;;
46731;SDS011;32477;51.474;5.696;2022-08-20T05:32:10;80.50;;;40.90;;
46731;SDS011;32477;51.474;5.696;2022-08-20T05:34:36;80.32;;;39.97;;
46731;SDS011;32477;51.474;5.696;2022-08-20T05:37:02;74.75;;;39.13;;
46731;SDS011;32477;51.474;5.696;2022-08-20T05:39:28;74.13;;;36.63;;
46731;SDS011;32477;51.474;5.696;2022-08-20T05:41:54;79.25;;;37.25;;
46731;SDS011;32477;51.474;5.696;2022-08-20T05:44:20;65.35;;;34.03;;
46731;SDS011;32477;51.474;5.696;2022-08-20T05:46:47;66.78;;;34.15;;
46731;SDS011;32477;51.474;5.696;2022-08-20T05:49:19;68.10;;;33.47;;
46731;SDS011;32477;51.474;5.696;2022-08-20T05:51:46;81.18;;;34.78;;
46731;SDS011;32477;51.474;5.696;2022-08-20T05:54:13;68.22;;;31.02;;
46731;SDS011;32477;51.474;5.696;2022-08-20T05:56:39;68.35;;;32.15;;
46731;SDS011;32477;51.474;5.696;2022-08-20T05:59:05;48.50;;;28.85;;
46731;SDS011;32477;51.474;5.696;2022-08-20T06:01:33;54.80;;;29.80;;
46731;SDS011;32477;51.474;5.696;2022-08-20T06:04:01;66.00;;;30.58;;
46731;SDS011;32477;51.474;5.696;2022-08-20T06:06:45;54.22;;;30.90;;
46731;SDS011;32477;51.474;5.696;2022-08-20T06:09:11;58.33;;;30.23;;
46731;SDS011;32477;51.474;5.696;2022-08-20T06:11:38;59.30;;;32.63;;
46731;SDS011;32477;51.474;5.696;2022-08-20T06:14:04;50.75;;;30.33;;
46731;SDS011;32477;51.474;5.696;2022-08-20T06:16:29;54.80;;;28.98;;
46731;SDS011;32477;51.474;5.696;2022-08-20T06:18:55;59.08;;;31.77;;
46731;SDS011;32477;51.474;5.696;2022-08-20T06:21:21;70.75;;;32.38;;
46731;SDS011;32477;51.474;5.696;2022-08-20T06:23:47;64.38;;;32.30;;
46731;SDS011;32477;51.474;5.696;2022-08-20T06:26:13;71.13;;;31.27;;
46731;SDS011;32477;51.474;5.696;2022-08-20T06:28:38;52.88;;;31.05;;
46731;SDS011;32477;51.474;5.696;2022-08-20T06:31:04;58.42;;;30.42;;
46731;SDS011;32477;51.474;5.696;2022-08-20T06:33:30;65.07;;;32.70;;
46731;SDS011;32477;51.474;5.696;2022-08-20T06:35:55;60.20;;;31.88;;
46731;SDS011;32477;51.474;5.696;2022-08-20T06:38:21;59.28;;;30.50;;
46731;SDS011;32477;51.474;5.696;2022-08-20T06:40:47;65.00;;;33.05;;
46731;SDS011;32477;51.474;5.696;2022-08-20T06:43:12;70.88;;;32.30;;
46731;SDS011;32477;51.474;5.696;2022-08-20T06:45:38;58.65;;;31.50;;
46731;SDS011;32477;51.474;5.696;2022-08-20T06:48:05;76.55;;;31.67;;
46731;SDS011;32477;51.474;5.696;2022-08-20T06:50:36;70.25;;;31.20;;
46731;SDS011;32477;51.474;5.696;2022-08-20T06:53:06;65.57;;;31.23;;
46731;SDS011;32477;51.474;5.696;2022-08-20T06:55:32;63.47;;;29.90;;
46731;SDS011;32477;51.474;5.696;2022-08-20T06:58:03;60.63;;;31.33;;
46731;SDS011;32477;51.474;5.696;2022-08-20T07:00:32;72.07;;;32.03;;
46731;SDS011;32477;51.474;5.696;2022-08-20T07:02:59;68.03;;;32.70;;
46731;SDS011;32477;51.474;5.696;2022-08-20T07:05:27;58.63;;;31.67;;
46731;SDS011;32477;51.474;5.696;2022-08-20T07:10:26;57.20;;;29.15;;
46731;SDS011;32477;51.474;5.696;2022-08-20T07:12:54;69.22;;;29.52;;
46731;SDS011;32477;51.474;5.696;2022-08-20T07:15:20;64.18;;;30.23;;
46731;SDS011;32477;51.474;5.696;2022-08-20T07:17:49;64.45;;;30.77;;
46731;SDS011;32477;51.474;5.696;2022-08-20T07:20:15;63.03;;;29.27;;
46731;SDS011;32477;51.474;5.696;2022-08-20T07:22:41;61.53;;;29.50;;
46731;SDS011;32477;51.474;5.696;2022-08-20T07:25:08;69.72;;;28.25;;
46731;SDS011;32477;51.474;5.696;2022-08-20T07:27:36;63.97;;;28.83;;
46731;SDS011;32477;51.474;5.696;2022-08-20T07:30:07;58.63;;;27.73;;
46731;SDS011;32477;51.474;5.696;2022-08-20T07:32:53;58.95;;;27.67;;
46731;SDS011;32477;51.474;5.696;2022-08-20T07:35:19;54.58;;;27.67;;
46731;SDS011;32477;51.474;5.696;2022-08-20T07:37:46;52.55;;;26.40;;
46731;SDS011;32477;51.474;5.696;2022-08-20T07:40:18;59.13;;;26.55;;
46731;SDS011;32477;51.474;5.696;2022-08-20T07:42:47;50.67;;;26.48;;
46731;SDS011;32477;51.474;5.696;2022-08-20T07:45:14;50.92;;;25.20;;
46731;SDS011;32477;51.474;5.696;2022-08-20T07:47:42;44.20;;;24.92;;
46731;SDS011;32477;51.474;5.696;2022-08-20T07:50:10;37.25;;;23.40;;
46731;SDS011;32477;51.474;5.696;2022-08-20T07:52:37;54.38;;;24.52;;
46731;SDS011;32477;51.474;5.696;2022-08-20T07:55:07;47.17;;;24.08;;
46731;SDS011;32477;51.474;5.696;2022-08-20T07:57:35;44.35;;;24.00;;
46731;SDS011;32477;51.474;5.696;2022-08-20T08:00:02;51.90;;;24.70;;
46731;SDS011;32477;51.474;5.696;2022-08-20T08:02:29;58.33;;;27.20;;
46731;SDS011;32477;51.474;5.696;2022-08-20T08:04:55;45.78;;;25.25;;
46731;SDS011;32477;51.474;5.696;2022-08-20T08:07:21;50.20;;;25.33;;
46731;SDS011;32477;51.474;5.696;2022-08-20T08:09:47;50.85;;;24.88;;
46731;SDS011;32477;51.474;5.696;2022-08-20T08:12:14;49.75;;;26.60;;
46731;SDS011;32477;51.474;5.696;2022-08-20T08:14:41;55.30;;;28.23;;
46731;SDS011;32477;51.474;5.696;2022-08-20T08:17:09;55.13;;;27.17;;
46731;SDS011;32477;51.474;5.696;2022-08-20T08:19:37;49.25;;;26.20;;
46731;SDS011;32477;51.474;5.696;2022-08-20T08:22:11;53.25;;;26.55;;
46731;SDS011;32477;51.474;5.696;2022-08-20T08:24:40;49.83;;;25.90;;
46731;SDS011;32477;51.474;5.696;2022-08-20T08:27:07;53.28;;;26.88;;
46731;SDS011;32477;51.474;5.696;2022-08-20T08:29:34;48.58;;;24.75;;
46731;SDS011;32477;51.474;5.696;2022-08-20T08:32:01;50.55;;;24.02;;
46731;SDS011;32477;51.474;5.696;2022-08-20T08:34:27;50.10;;;25.75;;
46731;SDS011;32477;51.474;5.696;2022-08-20T08:36:55;40.45;;;22.83;;
46731;SDS011;32477;51.474;5.696;2022-08-20T08:39:22;40.05;;;23.45;;
46731;SDS011;32477;51.474;5.696;2022-08-20T08:41:48;43.83;;;22.92;;
46731;SDS011;32477;51.474;5.696;2022-08-20T08:46:47;42.97;;;22.83;;
46731;SDS011;32477;51.474;5.696;2022-08-20T08:49:24;33.20;;;20.10;;
46731;SDS011;32477;51.474;5.696;2022-08-20T08:51:56;34.25;;;19.27;;
46731;SDS011;32477;51.474;5.696;2022-08-20T08:54:27;31.05;;;20.38;;
46731;SDS011;32477;51.474;5.696;2022-08-20T08:56:55;37.53;;;18.70;;
46731;SDS011;32477;51.474;5.696;2022-08-20T08:59:21;33.40;;;19.67;;
46731;SDS011;32477;51.474;5.696;2022-08-20T09:01:48;37.58;;;19.02;;
46731;SDS011;32477;51.474;5.696;2022-08-20T09:04:17;32.67;;;17.40;;
46731;SDS011;32477;51.474;5.696;2022-08-20T09:06:46;33.22;;;18.38;;
46731;SDS011;32477;51.474;5.696;2022-08-20T09:09:17;33.67;;;17.30;;
46731;SDS011;32477;51.474;5.696;2022-08-20T09:11:46;26.70;;;16.95;;
46731;SDS011;32477;51.474;5.696;2022-08-20T09:14:14;31.88;;;17.20;;
46731;SDS011;32477;51.474;5.696;2022-08-20T09:16:39;29.02;;;15.98;;
46731;SDS011;32477;51.474;5.696;2022-08-20T09:19:05;29.77;;;17.40;;
46731;SDS011;32477;51.474;5.696;2022-08-20T09:21:30;27.05;;;15.75;;
46731;SDS011;32477;51.474;5.696;2022-08-20T09:23:56;27.08;;;17.63;;
46731;SDS011;32477;51.474;5.696;2022-08-20T09:26:21;26.83;;;16.23;;
46731;SDS011;32477;51.474;5.696;2022-08-20T09:28:47;25.50;;;13.63;;
46731;SDS011;32477;51.474;5.696;2022-08-20T09:31:13;22.23;;;13.02;;
46731;SDS011;32477;51.474;5.696;2022-08-20T09:33:38;25.88;;;13.05;;
46731;SDS011;32477;51.474;5.696;2022-08-20T09:36:04;23.13;;;12.57;;
46731;SDS011;32477;51.474;5.696;2022-08-20T09:38:29;20.23;;;12.15;;
46731;SDS011;32477;51.474;5.696;2022-08-20T09:40:55;21.48;;;12.73;;
46731;SDS011;32477;51.474;5.696;2022-08-20T09:43:21;20.90;;;12.52;;
46731;SDS011;32477;51.474;5.696;2022-08-20T09:45:46;20.65;;;11.57;;
46731;SDS011;32477;51.474;5.696;2022-08-20T09:48:12;23.30;;;12.88;;
46731;SDS011;32477;51.474;5.696;2022-08-20T09:50:39;22.65;;;13.18;;
46731;SDS011;32477;51.474;5.696;2022-08-20T09:53:07;21.98;;;13.27;;
46731;SDS011;32477;51.474;5.696;2022-08-20T09:55:35;22.67;;;10.75;;
46731;SDS011;32477;51.474;5.696;2022-08-20T10:01:10;18.65;;;9.02;;
46731;SDS011;32477;51.474;5.696;2022-08-20T10:03:38;16.15;;;9.07;;
46731;SDS011;32477;51.474;5.696;2022-08-20T10:06:08;17.08;;;8.55;;
46731;SDS011;32477;51.474;5.696;2022-08-20T10:08:35;21.00;;;8.80;;
46731;SDS011;32477;51.474;5.696;2022-08-20T10:11:01;15.55;;;7.30;;
46731;SDS011;32477;51.474;5.696;2022-08-20T10:13:27;15.05;;;6.13;;
46731;SDS011;32477;51.474;5.696;2022-08-20T10:15:53;13.90;;;5.43;;
46731;SDS011;32477;51.474;5.696;2022-08-20T10:18:18;13.70;;;4.85;;
46731;SDS011;32477;51.474;5.696;2022-08-20T10:20:44;12.48;;;5.32;;
46731;SDS011;32477;51.474;5.696;2022-08-20T10:23:09;14.85;;;4.18;;
46731;SDS011;32477;51.474;5.696;2022-08-20T10:25:35;9.40;;;4.05;;
46731;SDS011;32477;51.474;5.696;2022-08-20T10:28:01;12.63;;;3.47;;
46731;SDS011;32477;51.474;5.696;2022-08-20T10:30:27;8.48;;;3.30;;
46731;SDS011;32477;51.474;5.696;2022-08-20T10:32:52;7.75;;;3.90;;
46731;SDS011;32477;51.474;5.696;2022-08-20T10:35:19;8.80;;;3.42;;
46731;SDS011;32477;51.474;5.696;2022-08-20T10:37:45;9.48;;;3.67;;
46731;SDS011;32477;51.474;5.696;2022-08-20T10:40:10;12.60;;;3.13;;
46731;SDS011;32477;51.474;5.696;2022-08-20T10:42:39;8.88;;;2.78;;
46731;SDS011;32477;51.474;5.696;2022-08-20T10:45:06;14.15;;;4.07;;
46731;SDS011;32477;51.474;5.696;2022-08-20T10:47:32;7.03;;;2.97;;
46731;SDS011;32477;51.474;5.696;2022-08-20T10:49:59;10.55;;;2.50;;
46731;SDS011;32477;51.474;5.696;2022-08-20T10:52:26;15.23;;;3.25;;
46731;SDS011;32477;51.474;5.696;2022-08-20T10:54:52;7.78;;;2.65;;
46731;SDS011;32477;51.474;5.696;2022-08-20T10:57:20;10.27;;;2.70;;
46731;SDS011;32477;51.474;5.696;2022-08-20T10:59:48;7.38;;;2.90;;
46731;SDS011;32477;51.474;5.696;2022-08-20T11:02:15;15.07;;;5.35;;
46731;SDS011;32477;51.474;5.696;2022-08-20T11:04:42;8.68;;;3.13;;
46731;SDS011;32477;51.474;5.696;2022-08-20T11:09:49;7.95;;;3.10;;
46731;SDS011;32477;51.474;5.696;2022-08-20T11:12:15;12.70;;;2.65;;
46731;SDS011;32477;51.474;5.696;2022-08-20T11:14:42;10.23;;;2.00;;
46731;SDS011;32477;51.474;5.696;2022-08-20T11:17:08;14.48;;;2.70;;
46731;SDS011;32477;51.474;5.696;2022-08-20T11:19:38;12.57;;;2.45;;
46731;SDS011;32477;51.474;5.696;2022-08-20T11:22:05;9.10;;;2.40;;
46731;SDS011;32477;51.474;5.696;2022-08-20T11:24:31;6.88;;;2.40;;
46731;SDS011;32477;51.474;5.696;2022-08-20T11:26:56;18.17;;;3.47;;
46731;SDS011;32477;51.474;5.696;2022-08-20T11:29:22;14.88;;;2.80;;
46731;SDS011;32477;51.474;5.696;2022-08-20T11:31:48;8.38;;;2.60;;
46731;SDS011;32477;51.474;5.696;2022-08-20T11:34:15;13.52;;;3.10;;
46731;SDS011;32477;51.474;5.696;2022-08-20T11:36:41;9.27;;;2.28;;
46731;SDS011;32477;51.474;5.696;2022-08-20T11:39:07;9.35;;;2.60;;
46731;SDS011;32477;51.474;5.696;2022-08-20T11:41:32;7.88;;;2.70;;
46731;SDS011;32477;51.474;5.696;2022-08-20T11:43:58;6.30;;;2.33;;
46731;SDS011;32477;51.474;5.696;2022-08-20T11:46:23;7.85;;;2.47;;
46731;SDS011;32477;51.474;5.696;2022-08-20T11:48:49;8.95;;;2.55;;
46731;SDS011;32477;51.474;5.696;2022-08-20T11:51:14;11.38;;;2.65;;
46731;SDS011;32477;51.474;5.696;2022-08-20T11:53:40;9.10;;;2.67;;
46731;SDS011;32477;51.474;5.696;2022-08-20T11:56:05;13.45;;;2.92;;
46731;SDS011;32477;51.474;5.696;2022-08-20T11:58:31;14.73;;;3.03;;
46731;SDS011;32477;51.474;5.696;2022-08-20T12:00:57;8.55;;;2.38;;
46731;SDS011;32477;51.474;5.696;2022-08-20T12:03:23;8.18;;;2.42;;
46731;SDS011;32477;51.474;5.696;2022-08-20T12:05:49;8.90;;;2.85;;
46731;SDS011;32477;51.474;5.696;2022-08-20T12:08:15;14.93;;;2.78;;
46731;SDS011;32477;51.474;5.696;2022-08-20T12:10:41;12.70;;;2.38;;
46731;SDS011;32477;51.474;5.696;2022-08-20T12:13:06;18.40;;;9.13;;
46731;SDS011;32477;51.474;5.696;2022-08-20T12:15:33;13.32;;;2.83;;
46731;SDS011;32477;51.474;5.696;2022-08-20T12:18:00;11.90;;;2.97;;
46731;SDS011;32477;51.474;5.696;2022-08-20T12:20:29;10.98;;;2.70;;
46731;SDS011;32477;51.474;5.696;2022-08-20T12:22:54;10.00;;;2.65;;
46731;SDS011;32477;51.474;5.696;2022-08-20T12:25:22;8.73;;;2.67;;
46731;SDS011;32477;51.474;5.696;2022-08-20T12:27:48;14.40;;;3.70;;
46731;SDS011;32477;51.474;5.696;2022-08-20T12:30:17;9.93;;;2.90;;
46731;SDS011;32477;51.474;5.696;2022-08-20T12:32:44;7.75;;;2.35;;
46731;SDS011;32477;51.474;5.696;2022-08-20T12:35:10;6.90;;;2.40;;
46731;SDS011;32477;51.474;5.696;2022-08-20T12:37:38;11.70;;;2.63;;
46731;SDS011;32477;51.474;5.696;2022-08-20T12:40:08;13.90;;;2.80;;
46731;SDS011;32477;51.474;5.696;2022-08-20T12:42:39;7.97;;;2.58;;
46731;SDS011;32477;51.474;5.696;2022-08-20T12:45:05;12.55;;;2.55;;
46731;SDS011;32477;51.474;5.696;2022-08-20T12:47:32;10.90;;;3.03;;
46731;SDS011;32477;51.474;5.696;2022-08-20T12:50:22;13.48;;;3.28;;
46731;SDS011;32477;51.474;5.696;2022-08-20T12:52:48;9.95;;;2.28;;
46731;SDS011;32477;51.474;5.696;2022-08-20T12:55:15;10.93;;;2.65;;
46731;SDS011;32477;51.474;5.696;2022-08-20T12:57:44;7.43;;;2.47;;
46731;SDS011;32477;51.474;5.696;2022-08-20T13:00:28;6.40;;;2.45;;
46731;SDS011;32477;51.474;5.696;2022-08-20T13:02:55;8.60;;;2.65;;
46731;SDS011;32477;51.474;5.696;2022-08-20T13:05:23;4.85;;;2.35;;
46731;SDS011;32477;51.474;5.696;2022-08-20T13:07:49;8.45;;;2.28;;
46731;SDS011;32477;51.474;5.696;2022-08-20T13:10:18;9.50;;;2.83;;
46731;SDS011;32477;51.474;5.696;2022-08-20T13:12:45;8.90;;;2.80;;
46731;SDS011;32477;51.474;5.696;2022-08-20T13:15:11;11.20;;;2.80;;
46731;SDS011;32477;51.474;5.696;2022-08-20T13:17:37;10.32;;;2.65;;
46731;SDS011;32477;51.474;5.696;2022-08-20T13:20:03;9.27;;;2.65;;
46731;SDS011;32477;51.474;5.696;2022-08-20T13:22:31;18.33;;;4.63;;
46731;SDS011;32477;51.474;5.696;2022-08-20T13:24:56;10.13;;;2.80;;
46731;SDS011;32477;51.474;5.696;2022-08-20T13:27:22;7.70;;;3.00;;
46731;SDS011;32477;51.474;5.696;2022-08-20T13:29:49;7.63;;;2.92;;
46731;SDS011;32477;51.474;5.696;2022-08-20T13:32:19;9.88;;;2.63;;
46731;SDS011;32477;51.474;5.696;2022-08-20T13:34:46;10.82;;;2.47;;
46731;SDS011;32477;51.474;5.696;2022-08-20T13:37:13;13.65;;;2.70;;
46731;SDS011;32477;51.474;5.696;2022-08-20T13:39:39;8.27;;;2.40;;
46731;SDS011;32477;51.474;5.696;2022-08-20T13:42:06;8.65;;;2.38;;
46731;SDS011;32477;51.474;5.696;2022-08-20T13:44:32;10.38;;;3.10;;
46731;SDS011;32477;51.474;5.696;2022-08-20T13:46:57;12.55;;;2.80;;
46731;SDS011;32477;51.474;5.696;2022-08-20T13:49:23;12.38;;;2.60;;
46731;SDS011;32477;51.474;5.696;2022-08-20T13:51:48;6.25;;;2.50;;
46731;SDS011;32477;51.474;5.696;2022-08-20T13:54:14;12.95;;;2.72;;
46731;SDS011;32477;51.474;5.696;2022-08-20T13:56:40;15.55;;;3.00;;
46731;SDS011;32477;51.474;5.696;2022-08-20T13:59:06;10.55;;;2.97;;
46731;SDS011;32477;51.474;5.696;2022-08-20T14:01:32;9.52;;;2.35;;
46731;SDS011;32477;51.474;5.696;2022-08-20T14:03:57;10.45;;;2.67;;
46731;SDS011;32477;51.474;5.696;2022-08-20T14:06:23;12.63;;;2.90;;
46731;SDS011;32477;51.474;5.696;2022-08-20T14:08:49;13.07;;;3.00;;
46731;SDS011;32477;51.474;5.696;2022-08-20T14:11:14;6.70;;;1.80;;
46731;SDS011;32477;51.474;5.696;2022-08-20T14:13:40;12.05;;;2.28;;
46731;SDS011;32477;51.474;5.696;2022-08-20T14:16:06;9.57;;;2.17;;
46731;SDS011;32477;51.474;5.696;2022-08-20T14:18:32;11.52;;;2.70;;
46731;SDS011;32477;51.474;5.696;2022-08-20T14:20:57;12.93;;;2.97;;
46731;SDS011;32477;51.474;5.696;2022-08-20T14:23:23;9.10;;;2.35;;
46731;SDS011;32477;51.474;5.696;2022-08-20T14:25:48;9.35;;;2.80;;
46731;SDS011;32477;51.474;5.696;2022-08-20T14:28:16;9.20;;;2.72;;
46731;SDS011;32477;51.474;5.696;2022-08-20T14:30:48;10.60;;;2.85;;
46731;SDS011;32477;51.474;5.696;2022-08-20T14:33:14;7.65;;;2.63;;
46731;SDS011;32477;51.474;5.696;2022-08-20T14:35:40;10.18;;;2.85;;
46731;SDS011;32477;51.474;5.696;2022-08-20T14:38:06;7.80;;;2.78;;
46731;SDS011;32477;51.474;5.696;2022-08-20T14:40:32;9.40;;;3.17;;
46731;SDS011;32477;51.474;5.696;2022-08-20T14:42:59;13.10;;;3.22;;
46731;SDS011;32477;51.474;5.696;2022-08-20T14:45:25;9.88;;;3.03;;